Time;durP1;ratioP1;P1;durP2;ratioP2;P2;SDS_P1;SDS_P2;PMS_P1;PMS_P2;Temp;Humidity;BMP_temperature;BMP_pressure;BME280_temperature;BME280_humidity;BME280_pressure;Samples;Min_cycle;Max_cycle;Signal;HPM_P1;HPM_P2
2022/11/17 00:00:09;;;;;;;2.88;1.80;;;14.00;99.90;;;;;;5035885;28;20076;-66
2022/11/17 00:02:35;;;;;;;2.05;1.67;;;13.90;99.90;;;;;;5036099;28;20027;-66
2022/11/17 00:05:01;;;;;;;2.30;2.08;;;13.90;99.90;;;;;;5036211;28;20029;-66
2022/11/17 00:07:26;;;;;;;2.58;1.88;;;13.90;99.90;;;;;;5035735;28;20028;-63
2022/11/17 00:09:52;;;;;;;2.63;2.15;;;13.90;99.90;;;;;;5034222;28;20057;-63
2022/11/17 00:15:01;;;;;;;;;;;13.90;99.90;;;;;;5036163;28;20403;-63
2022/11/17 00:17:27;;;;;;;3.85;2.70;;;13.90;99.90;;;;;;5035800;28;19905;-64
2022/11/17 00:22:37;;;;;;;3.55;2.47;;;14.00;99.90;;;;;;5035713;28;20495;-65
2022/11/17 00:25:02;;;;;;;6.13;3.72;;;13.90;99.90;;;;;;5035602;28;20022;-68
2022/11/17 00:27:28;;;;;;;4.75;3.65;;;13.90;99.90;;;;;;5035336;28;20111;-68
2022/11/17 00:29:54;;;;;;;9.82;6.75;;;13.90;99.90;;;;;;5035604;28;20497;-65
2022/11/17 00:35:05;;;;;;;9.43;7.05;;;13.80;99.90;;;;;;5035668;28;20056;-67
2022/11/17 00:37:37;;;;;;;9.98;7.60;;;13.70;99.90;;;;;;5035093;28;20030;-67
2022/11/17 00:40:06;;;;;;;9.93;8.30;;;13.60;99.90;;;;;;5035204;28;20045;-66
2022/11/17 00:42:31;;;;;;;11.30;9.27;;;13.60;99.90;;;;;;5035474;28;20053;-63
2022/11/17 00:44:57;;;;;;;9.70;7.80;;;13.60;99.90;;;;;;5034461;28;20060;-69
2022/11/17 00:47:23;;;;;;;8.07;6.53;;;13.70;99.90;;;;;;5035044;28;20160;-62
2022/11/17 00:49:48;;;;;;;7.35;5.20;;;13.70;99.90;;;;;;5035218;28;20483;-66
2022/11/17 00:52:14;;;;;;;6.55;5.40;;;13.70;99.90;;;;;;5034847;28;20032;-63
2022/11/17 00:54:40;;;;;;;8.15;6.10;;;13.70;99.90;;;;;;5035274;28;20108;-68
2022/11/17 00:57:05;;;;;;;8.18;6.32;;;13.60;99.90;;;;;;5034852;28;20116;-65
2022/11/17 00:59:31;;;;;;;13.98;8.60;;;13.60;99.90;;;;;;5035057;28;20466;-64
2022/11/17 01:01:57;;;;;;;9.18;6.75;;;13.50;99.90;;;;;;5034815;28;20112;-64
2022/11/17 01:04:22;;;;;;;10.45;7.07;;;13.40;99.90;;;;;;5034744;28;20105;-64
2022/11/17 01:06:48;;;;;;;10.02;8.02;;;13.40;99.90;;;;;;5034497;28;20053;-64
2022/11/17 01:09:20;;;;;;;9.52;7.35;;;13.30;99.90;;;;;;5034513;28;20025;-66
2022/11/17 01:11:46;;;;;;;9.55;6.57;;;13.30;99.90;;;;;;5034601;28;20021;-68
2022/11/17 01:14:18;;;;;;;9.38;7.00;;;13.40;99.90;;;;;;5034903;28;20048;-67
2022/11/17 01:16:44;;;;;;;7.88;6.05;;;13.50;99.90;;;;;;5034588;28;20431;-63
2022/11/17 01:19:12;;;;;;;5.50;4.70;;;13.50;99.90;;;;;;5034450;28;20029;-65
2022/11/17 01:21:38;;;;;;;4.80;4.30;;;13.60;99.90;;;;;;5034313;28;20018;-68
2022/11/17 01:24:03;;;;;;;5.75;4.68;;;13.60;99.90;;;;;;5034443;28;20100;-65
2022/11/17 01:26:33;;;;;;;4.50;3.95;;;13.50;99.90;;;;;;5034297;28;20022;-65
2022/11/17 01:29:00;;;;;;;4.55;4.10;;;13.60;99.90;;;;;;5034257;28;20033;-63
2022/11/17 01:31:29;;;;;;;3.80;3.10;;;13.50;99.90;;;;;;5034420;28;20102;-67
2022/11/17 01:33:55;;;;;;;2.60;2.40;;;13.60;99.90;;;;;;5034150;28;20033;-65
2022/11/17 01:39:21;;;;;;;3.65;2.90;;;13.60;99.90;;;;;;5034452;28;20033;-65
2022/11/17 01:41:46;;;;;;;3.08;2.78;;;13.60;99.90;;;;;;5034156;28;20395;-61
2022/11/17 01:44:43;;;;;;;3.17;2.90;;;13.50;99.90;;;;;;5033998;28;20025;-64
2022/11/17 01:47:18;;;;;;;3.55;2.47;;;13.60;99.90;;;;;;5033941;28;20387;-61
2022/11/17 01:49:45;;;;;;;3.90;3.10;;;13.60;99.90;;;;;;5033783;28;20029;-66
2022/11/17 01:52:11;;;;;;;3.92;3.13;;;13.60;99.90;;;;;;5032627;28;20419;-62
2022/11/17 01:54:40;;;;;;;3.80;2.92;;;13.50;99.90;;;;;;5034013;28;20022;-62
2022/11/17 01:57:16;;;;;;;3.60;3.03;;;13.50;99.90;;;;;;5033793;28;20061;-65
2022/11/17 01:59:47;;;;;;;4.05;3.28;;;13.50;99.90;;;;;;5033789;28;20021;-64
2022/11/17 02:02:13;;;;;;;4.50;3.65;;;13.50;99.90;;;;;;5033983;28;20102;-68
2022/11/17 02:04:46;;;;;;;8.38;6.00;;;13.50;99.90;;;;;;5033496;28;20029;-63
2022/11/17 02:07:33;;;;;;;5.40;4.18;;;13.30;99.90;;;;;;5033692;28;20507;-63
2022/11/17 02:10:00;;;;;;;5.13;4.15;;;13.30;99.90;;;;;;5033563;28;20098;-67
2022/11/17 02:12:26;;;;;;;5.68;4.38;;;13.30;99.90;;;;;;5033676;28;20033;-63
2022/11/17 02:14:53;;;;;;;5.82;4.63;;;13.40;99.90;;;;;;5033803;28;20026;-69
2022/11/17 02:17:21;;;;;;;5.10;4.13;;;13.40;99.90;;;;;;5033549;28;20028;-67
2022/11/17 02:20:04;;;;;;;4.40;3.95;;;13.40;99.90;;;;;;5033364;28;20018;-64
2022/11/17 02:22:39;;;;;;;3.90;3.25;;;13.30;99.90;;;;;;5033437;28;20464;-64
2022/11/17 02:25:28;;;;;;;3.13;2.40;;;13.30;99.90;;;;;;5033388;28;20022;-63
2022/11/17 02:28:13;;;;;;;2.58;2.22;;;13.30;99.90;;;;;;5033259;28;20026;-63
2022/11/17 02:31:15;;;;;;;3.30;2.53;;;13.30;99.90;;;;;;5033262;28;20025;-63
2022/11/17 02:33:55;;;;;;;2.85;2.30;;;13.20;99.90;;;;;;5033053;28;20075;-65
2022/11/17 02:36:34;;;;;;;1.67;1.58;;;13.20;99.90;;;;;;5033401;28;20024;-66
2022/11/17 02:39:23;;;;;;;1.75;1.50;;;13.30;99.90;;;;;;5033221;28;20033;-65
2022/11/17 02:44:02;;;;;;;2.38;1.90;;;13.30;99.90;;;;;;5033270;28;20021;-63
2022/11/17 02:45:13;;;;;;;1.88;1.63;;;13.30;99.90;;;;;;5033030;28;20026;-63
2022/11/17 02:47:45;;;;;;;1.65;1.50;;;13.30;99.90;;;;;;5033254;28;20034;-66
2022/11/17 02:50:12;;;;;;;1.40;1.30;;;13.20;99.90;;;;;;5033187;28;20029;-64
2022/11/17 02:52:38;;;;;;;1.58;1.48;;;13.10;99.90;;;;;;5033055;28;20025;-64
2022/11/17 02:55:07;;;;;;;2.33;1.70;;;13.10;99.90;;;;;;5033411;28;20032;-65
2022/11/17 02:57:36;;;;;;;1.83;1.55;;;13.10;99.90;;;;;;5033179;28;20025;-65
2022/11/17 03:00:05;;;;;;;1.77;1.65;;;13.10;99.90;;;;;;5033057;28;20021;-63
2022/11/17 03:02:49;;;;;;;2.03;1.70;;;13.10;99.90;;;;;;5033155;28;20025;-67
2022/11/17 03:05:19;;;;;;;2.38;2.17;;;13.00;99.90;;;;;;5032916;28;20061;-66
2022/11/17 03:08:35;;;;;;;4.30;3.00;;;13.00;99.90;;;;;;5033378;28;20029;-64
2022/11/17 03:11:04;;;;;;;4.57;3.47;;;13.00;99.90;;;;;;5044536;28;20443;-67
2022/11/17 03:13:29;;;;;;;4.40;3.80;;;13.00;99.90;;;;;;5037188;28;20095;-65
2022/11/17 03:16:07;;;;;;;3.80;3.03;;;13.00;99.90;;;;;;5036774;28;20468;-63
2022/11/17 03:18:58;;;;;;;2.80;2.60;;;13.00;99.90;;;;;;5036701;28;20025;-66
2022/11/17 03:21:54;;;;;;;2.72;2.22;;;13.00;99.90;;;;;;5036902;28;20025;-63
2022/11/17 03:24:25;;;;;;;2.10;1.90;;;13.00;99.90;;;;;;5042603;28;20026;-63
2022/11/17 03:26:59;;;;;;;4.00;2.92;;;13.00;99.90;;;;;;5036690;28;20360;-63
2022/11/17 03:29:26;;;;;;;;;;;13.00;99.90;;;;;;5037042;28;20033;-68
2022/11/17 03:31:57;;;;;;;2.83;2.30;;;12.90;99.90;;;;;;5036263;28;19935;-64
2022/11/17 03:34:25;;;;;;;3.33;2.60;;;12.80;99.90;;;;;;5036661;28;20101;-64
2022/11/17 03:36:54;;;;;;;5.53;3.67;;;12.90;99.90;;;;;;5036384;28;20018;-62
2022/11/17 03:39:34;;;;;;;3.20;2.90;;;12.90;99.90;;;;;;5036578;28;20036;-64
2022/11/17 03:42:19;;;;;;;3.65;2.70;;;13.00;99.90;;;;;;5036411;28;20021;-62
2022/11/17 03:44:56;;;;;;;3.58;2.92;;;13.00;99.90;;;;;;5036371;28;20025;-62
2022/11/17 03:47:25;;;;;;;3.25;2.47;;;12.90;99.90;;;;;;5035980;28;20125;-64
2022/11/17 03:50:03;;;;;;;4.90;4.13;;;13.00;99.90;;;;;;5036250;28;20025;-66
2022/11/17 03:52:29;;;;;;;3.90;2.60;;;13.00;99.90;;;;;;5036202;28;20044;-65
2022/11/17 03:54:55;;;;;;;3.17;2.88;;;13.00;99.90;;;;;;5036074;28;20021;-62
2022/11/17 03:57:51;;;;;;;5.57;4.10;;;13.00;99.90;;;;;;5036429;28;20494;-63
2022/11/17 04:00:18;;;;;;;4.22;3.58;;;12.90;99.90;;;;;;5035855;28;20037;-65
2022/11/17 04:02:46;;;;;;;6.38;4.43;;;12.90;99.90;;;;;;5036268;28;20029;-66
2022/11/17 04:05:16;;;;;;;6.85;6.15;;;12.80;99.90;;;;;;5035960;28;20165;-68
2022/11/17 04:07:47;;;;;;;6.90;5.88;;;12.70;99.90;;;;;;5036108;28;20080;-66
2022/11/17 04:10:17;;;;;;;5.32;4.82;;;12.30;99.90;;;;;;5035865;28;20082;-65
2022/11/17 04:18:13;;;;;;;5.03;4.20;;;12.10;99.90;;;;;;5035856;28;20571;-63
2022/11/17 04:20:39;;;;;;;8.50;5.82;;;12.20;99.90;;;;;;5034535;28;20032;-64
2022/11/17 04:23:10;;;;;;;6.30;5.70;;;12.20;99.90;;;;;;5035847;28;20025;-64
2022/11/17 04:28:37;;;;;;;4.57;3.95;;;12.00;99.90;;;;;;5035533;28;20518;-68
2022/11/17 04:31:18;;;;;;;5.38;4.63;;;11.80;99.90;;;;;;5035328;28;20480;-62
2022/11/17 04:33:48;;;;;;;20.88;13.27;;;11.70;99.90;;;;;;5035260;28;20022;-65
2022/11/17 04:36:19;;;;;;;18.95;12.20;;;11.70;99.90;;;;;;5035939;28;20048;-66
2022/11/17 04:38:50;;;;;;;19.08;12.45;;;11.60;99.90;;;;;;5035361;28;20032;-61
2022/11/17 04:44:02;;;;;;;8.55;6.13;;;11.80;99.90;;;;;;5035409;28;20103;-60
2022/11/17 04:46:30;;;;;;;5.93;4.60;;;11.90;99.90;;;;;;5035133;28;20156;-63
2022/11/17 04:48:56;;;;;;;5.53;4.07;;;11.80;99.90;;;;;;5035050;28;20525;-63
2022/11/17 04:51:23;;;;;;;4.38;3.97;;;11.70;99.90;;;;;;5035140;28;20100;-68
2022/11/17 04:53:50;;;;;;;5.18;3.47;;;11.60;99.90;;;;;;5034970;28;20026;-63
2022/11/17 04:56:17;;;;;;;4.97;3.55;;;11.60;99.90;;;;;;5035002;28;20025;-63
2022/11/17 04:58:43;;;;;;;4.68;3.65;;;11.60;99.90;;;;;;5034892;28;20030;-61
2022/11/17 05:01:11;;;;;;;5.22;4.47;;;11.70;99.90;;;;;;5034783;28;20017;-63
2022/11/17 05:03:47;;;;;;;4.63;3.83;;;11.80;99.90;;;;;;5034984;28;20034;-66
2022/11/17 05:06:17;;;;;;;4.30;3.90;;;11.90;99.90;;;;;;5034782;28;20018;-68
2022/11/17 05:08:43;;;;;;;4.35;3.90;;;11.80;99.90;;;;;;5034610;28;20025;-68
2022/11/17 05:13:56;;;;;;;5.70;5.20;;;11.80;99.90;;;;;;5035158;28;20075;-64
2022/11/17 05:19:09;;;;;;;8.80;7.88;;;12.00;99.90;;;;;;5034802;28;20040;-64
2022/11/17 05:21:35;;;;;;;9.73;7.95;;;12.00;99.90;;;;;;5034705;28;20075;-66
2022/11/17 05:24:01;;;;;;;9.45;8.30;;;12.00;99.90;;;;;;5034763;28;20022;-64
2022/11/17 05:26:30;;;;;;;12.60;11.30;;;12.00;99.90;;;;;;5034673;28;20064;-69
2022/11/17 05:28:58;;;;;;;10.65;9.65;;;12.00;99.90;;;;;;5034133;28;20033;-67
2022/11/17 05:31:25;;;;;;;7.63;6.93;;;12.00;99.90;;;;;;5034365;28;20032;-63
2022/11/17 05:33:51;;;;;;;9.45;8.55;;;12.00;99.90;;;;;;5034170;28;20045;-66
2022/11/17 05:36:17;;;;;;;8.07;7.35;;;12.00;99.90;;;;;;5034549;28;20369;-66
2022/11/17 05:38:44;;;;;;;7.53;6.40;;;12.00;99.90;;;;;;5034469;28;20026;-62
2022/11/17 05:41:10;;;;;;;6.75;5.80;;;12.00;99.90;;;;;;5034076;28;20017;-66
2022/11/17 05:43:36;;;;;;;7.13;6.22;;;12.10;99.90;;;;;;5034158;28;20026;-63
2022/11/17 05:46:02;;;;;;;8.70;7.80;;;12.10;99.90;;;;;;5034107;28;20075;-64
2022/11/17 05:48:27;;;;;;;6.57;5.90;;;12.20;99.90;;;;;;5033826;28;20025;-65
2022/11/17 05:50:54;;;;;;;8.70;7.20;;;12.20;99.90;;;;;;5033860;28;20033;-68
2022/11/17 05:53:23;;;;;;;13.60;11.63;;;12.20;99.90;;;;;;5033992;28;20053;-65
2022/11/17 05:55:50;;;;;;;14.63;12.90;;;12.20;99.90;;;;;;5033361;28;20360;-65
2022/11/17 05:58:23;;;;;;;14.07;11.10;;;12.20;99.90;;;;;;5033462;28;20103;-67
2022/11/17 06:00:51;;;;;;;9.00;7.90;;;12.10;99.90;;;;;;5033623;28;20021;-66
2022/11/17 06:03:33;;;;;;;6.85;6.15;;;12.10;99.90;;;;;;5033593;28;20032;-61
2022/11/17 06:05:58;;;;;;;7.90;6.97;;;12.00;99.90;;;;;;5032806;28;20096;-64
2022/11/17 06:08:25;;;;;;;9.27;7.50;;;12.00;99.90;;;;;;5033427;28;20124;-67
2022/11/17 06:10:51;;;;;;;9.75;7.90;;;12.00;99.90;;;;;;5033318;28;20045;-64
2022/11/17 06:13:19;;;;;;;7.70;6.90;;;12.00;99.90;;;;;;5033600;28;20029;-65
2022/11/17 06:15:44;;;;;;;8.73;6.97;;;12.10;99.90;;;;;;5033330;28;20076;-68
2022/11/17 06:18:16;;;;;;;12.07;7.60;;;12.10;99.90;;;;;;5033639;28;20033;-62
2022/11/17 06:20:47;;;;;;;7.68;6.55;;;12.20;99.90;;;;;;5041631;28;20411;-63
2022/11/17 06:23:14;;;;;;;9.07;7.47;;;12.30;99.90;;;;;;5052425;28;20091;-60
2022/11/17 06:25:40;;;;;;;16.52;12.43;;;12.40;99.90;;;;;;5052973;28;20459;-66
2022/11/17 06:28:11;;;;;;;17.20;14.13;;;12.50;99.90;;;;;;5052298;28;20090;-68
2022/11/17 06:30:38;;;;;;;19.25;15.50;;;12.50;99.90;;;;;;5052388;28;20364;-67
2022/11/17 06:33:06;;;;;;;26.15;23.23;;;12.50;99.90;;;;;;5052862;28;20361;-64
2022/11/17 06:35:33;;;;;;;17.92;15.68;;;12.50;99.90;;;;;;5051939;28;20434;-68
2022/11/17 06:38:00;;;;;;;18.95;15.40;;;12.40;99.90;;;;;;5053341;28;20078;-65
2022/11/17 06:40:26;;;;;;;24.00;21.00;;;12.50;99.90;;;;;;5051901;28;20021;-67
2022/11/17 06:43:13;;;;;;;22.45;19.55;;;12.50;99.90;;;;;;5050561;28;20021;-65
2022/11/17 06:45:40;;;;;;;16.08;14.45;;;12.50;99.90;;;;;;5051329;28;20065;-69
2022/11/17 06:48:08;;;;;;;15.70;13.82;;;12.50;99.90;;;;;;5037044;28;20128;-68
2022/11/17 06:50:33;;;;;;;16.42;14.52;;;12.50;99.90;;;;;;5031529;28;20025;-65
2022/11/17 06:53:01;;;;;;;15.02;13.52;;;12.50;99.90;;;;;;5030915;28;20103;-65
2022/11/17 06:55:28;;;;;;;16.00;13.40;;;12.60;99.90;;;;;;5028708;28;20026;-64
2022/11/17 06:58:02;;;;;;;14.27;12.82;;;12.60;99.90;;;;;;5030393;28;20021;-67
2022/11/17 07:00:29;;;;;;;14.68;12.90;;;12.50;99.90;;;;;;5038486;28;20029;-65
2022/11/17 07:02:59;;;;;;;12.43;11.13;;;12.50;99.90;;;;;;5051276;28;20101;-69
2022/11/17 07:05:25;;;;;;;18.77;15.68;;;12.60;99.90;;;;;;5052597;28;20029;-65
2022/11/17 07:07:51;;;;;;;16.85;14.73;;;12.70;99.90;;;;;;5043455;28;20044;-69
2022/11/17 07:10:17;;;;;;;14.20;12.63;;;12.90;99.90;;;;;;5041956;28;20049;-66
2022/11/17 07:12:44;;;;;;;11.88;10.55;;;13.10;99.90;;;;;;5032083;28;20036;-65
2022/11/17 07:15:10;;;;;;;12.27;10.80;;;13.20;99.90;;;;;;5033120;28;20026;-65
2022/11/17 07:17:36;;;;;;;12.25;10.65;;;13.50;99.90;;;;;;5052762;28;20036;-69
2022/11/17 07:20:02;;;;;;;10.00;9.00;;;13.70;99.90;;;;;;5052008;28;20104;-69
2022/11/17 07:22:28;;;;;;;9.40;8.50;;;14.00;99.90;;;;;;5042468;28;20024;-64
2022/11/17 07:24:54;;;;;;;9.48;8.40;;;14.30;99.90;;;;;;5038530;28;20647;-71
2022/11/17 07:27:20;;;;;;;9.43;8.40;;;14.60;99.90;;;;;;5042574;28;20030;-70
2022/11/17 07:29:45;;;;;;;9.38;8.48;;;14.60;99.90;;;;;;5034554;28;20053;-66
2022/11/17 07:32:12;;;;;;;8.38;7.57;;;14.60;99.90;;;;;;5038967;28;20082;-74
2022/11/17 07:34:39;;;;;;;8.45;7.63;;;14.60;99.90;;;;;;5037257;28;20083;-67
2022/11/17 07:37:05;;;;;;;8.52;7.50;;;14.60;99.90;;;;;;5038248;28;20025;-69
2022/11/17 07:39:30;;;;;;;9.98;8.98;;;14.60;99.90;;;;;;5038437;28;20025;-69
2022/11/17 07:41:56;;;;;;;10.05;9.05;;;14.50;99.90;;;;;;5039863;28;20033;-67
2022/11/17 07:44:21;;;;;;;10.75;9.65;;;14.50;99.90;;;;;;5038149;28;20147;-70
2022/11/17 07:46:47;;;;;;;11.60;10.32;;;14.40;99.90;;;;;;5039079;28;20074;-66
2022/11/17 07:49:13;;;;;;;15.13;13.55;;;14.30;99.90;;;;;;5038038;28;20068;-60
2022/11/17 07:51:38;;;;;;;12.07;10.82;;;14.30;99.90;;;;;;5037339;28;20210;-68
2022/11/17 07:54:04;;;;;;;15.88;13.82;;;14.30;99.90;;;;;;5030421;28;20387;-66
2022/11/17 07:56:44;;;;;;;16.33;14.25;;;14.20;99.90;;;;;;5042298;28;20511;-72
2022/11/17 07:59:10;;;;;;;17.00;13.52;;;14.10;99.90;;;;;;5038469;28;20030;-64
2022/11/17 08:01:36;;;;;;;12.70;11.25;;;14.00;99.90;;;;;;5045077;28;20040;-76
2022/11/17 08:04:01;;;;;;;14.32;12.05;;;14.00;99.90;;;;;;5050248;28;20094;-68
2022/11/17 08:06:27;;;;;;;12.27;10.27;;;14.10;99.90;;;;;;5041696;28;20055;-63
2022/11/17 08:08:53;;;;;;;16.00;14.13;;;14.10;99.90;;;;;;5045662;28;20098;-66
2022/11/17 08:11:19;;;;;;;14.90;12.90;;;14.10;99.90;;;;;;5030539;28;20112;-66
2022/11/17 08:13:45;;;;;;;11.85;10.55;;;14.10;99.90;;;;;;5030373;28;20317;-63
2022/11/17 08:16:12;;;;;;;9.85;8.85;;;14.20;99.90;;;;;;5032067;28;20087;-70
2022/11/17 08:18:38;;;;;;;10.02;9.02;;;14.30;99.90;;;;;;5031477;28;20030;-66
2022/11/17 08:21:13;;;;;;;10.23;9.10;;;14.20;99.90;;;;;;5032604;28;20026;-68
2022/11/17 08:23:42;;;;;;;9.80;8.85;;;14.20;99.90;;;;;;5050227;28;20079;-64
2022/11/17 08:26:10;;;;;;;9.65;8.38;;;14.20;99.90;;;;;;5050564;28;20043;-64
2022/11/17 08:28:36;;;;;;;8.63;7.72;;;14.20;99.90;;;;;;5042430;28;20021;-71
2022/11/17 08:31:03;;;;;;;7.35;6.65;;;14.20;99.90;;;;;;5035638;28;20034;-66
2022/11/17 08:33:29;;;;;;;8.27;7.25;;;14.30;99.90;;;;;;5047887;28;20021;-65
2022/11/17 08:35:59;;;;;;;8.52;7.18;;;14.40;99.90;;;;;;5041576;28;20031;-66
2022/11/17 08:38:28;;;;;;;7.20;6.50;;;14.30;99.90;;;;;;5048864;28;20025;-69
2022/11/17 08:41:05;;;;;;;6.43;5.82;;;14.30;99.90;;;;;;5035267;28;20113;-64
2022/11/17 08:43:31;;;;;;;5.18;4.68;;;14.40;99.90;;;;;;5034399;28;20021;-72
2022/11/17 08:45:57;;;;;;;4.60;4.20;;;14.50;99.90;;;;;;5035621;28;20059;-60
2022/11/17 08:48:24;;;;;;;4.88;4.47;;;14.70;99.90;;;;;;5046078;28;20065;-66
2022/11/17 08:50:50;;;;;;;5.00;4.50;;;14.60;99.90;;;;;;5050420;28;20048;-61
2022/11/17 08:53:18;;;;;;;4.97;4.45;;;14.60;99.90;;;;;;5036466;28;20047;-72
2022/11/17 08:55:44;;;;;;;4.78;4.32;;;14.70;99.90;;;;;;5032124;28;20021;-67
2022/11/17 08:58:13;;;;;;;4.82;4.28;;;14.80;99.90;;;;;;5031066;28;20029;-73
2022/11/17 09:00:39;;;;;;;4.80;4.40;;;14.80;99.90;;;;;;5031056;28;20032;-64
2022/11/17 09:03:09;;;;;;;5.03;4.53;;;14.70;99.90;;;;;;5041004;28;20448;-61
2022/11/17 09:05:40;;;;;;;4.82;4.40;;;14.70;99.90;;;;;;5034631;28;20068;-68
2022/11/17 09:08:07;;;;;;;4.40;4.00;;;14.80;99.90;;;;;;5032409;28;20124;-65
2022/11/17 09:10:35;;;;;;;6.00;5.43;;;14.80;99.90;;;;;;5033537;28;20104;-62
2022/11/17 09:13:00;;;;;;;6.10;5.43;;;14.80;99.90;;;;;;5032848;28;20038;-69
2022/11/17 09:15:26;;;;;;;6.80;5.40;;;14.80;99.90;;;;;;5038865;28;20029;-69
2022/11/17 09:17:52;;;;;;;6.75;5.93;;;14.80;99.90;;;;;;5051299;28;20040;-62
2022/11/17 09:20:18;;;;;;;11.05;6.88;;;15.00;99.90;;;;;;5050579;28;20025;-65
2022/11/17 09:22:45;;;;;;;7.50;6.70;;;14.90;99.90;;;;;;5051264;28;20052;-70
2022/11/17 09:25:12;;;;;;;6.60;6.00;;;14.90;99.90;;;;;;5043532;28;20025;-70
2022/11/17 09:27:38;;;;;;;8.77;7.53;;;15.20;99.90;;;;;;5033392;28;20033;-73
2022/11/17 09:30:06;;;;;;;6.75;6.00;;;15.40;99.90;;;;;;5032543;28;20353;-70
2022/11/17 09:32:33;;;;;;;8.10;7.28;;;15.50;99.90;;;;;;5033440;28;20029;-66
2022/11/17 09:34:59;;;;;;;8.07;7.13;;;15.70;99.90;;;;;;5033886;28;20466;-69
2022/11/17 09:37:26;;;;;;;8.02;7.32;;;15.80;99.90;;;;;;5034134;28;20018;-68
2022/11/17 09:39:52;;;;;;;10.48;9.32;;;15.90;99.90;;;;;;5035568;28;20034;-67
2022/11/17 09:42:19;;;;;;;8.82;7.82;;;16.00;99.90;;;;;;5036269;28;20030;-72
2022/11/17 09:44:53;;;;;;;6.93;6.22;;;16.20;99.90;;;;;;5033699;28;20113;-67
2022/11/17 09:47:41;;;;;;;;;;;16.40;99.90;;;;;;5031526;28;20385;-65
2022/11/17 09:50:12;;;;;;;6.07;5.50;;;16.60;99.90;;;;;;5028408;28;19959;-70
2022/11/17 09:52:53;;;;;;;5.90;5.15;;;16.80;99.90;;;;;;5047636;28;20487;-62
2022/11/17 09:55:44;;;;;;;5.68;5.18;;;17.00;99.90;;;;;;5031792;28;20026;-63
2022/11/17 09:58:38;;;;;;;6.28;5.68;;;17.20;99.90;;;;;;5031642;28;20029;-67
2022/11/17 10:01:05;;;;;;;5.18;4.68;;;17.30;99.90;;;;;;5029592;28;20104;-67
2022/11/17 10:03:35;;;;;;;5.43;4.93;;;17.30;99.90;;;;;;5029634;28;20017;-68
2022/11/17 10:06:05;;;;;;;6.50;5.32;;;17.40;99.90;;;;;;5029544;28;20053;-76
2022/11/17 10:08:57;;;;;;;4.78;4.38;;;17.60;99.90;;;;;;5041694;28;20058;-66
2022/11/17 10:11:32;;;;;;;5.28;4.80;;;18.00;99.90;;;;;;5046523;28;20049;-75
2022/11/17 10:14:08;;;;;;;4.72;4.32;;;18.40;99.90;;;;;;5036550;28;20038;-65
2022/11/17 10:16:36;;;;;;;4.68;4.20;;;18.70;99.90;;;;;;5038514;28;20075;-64
2022/11/17 10:19:22;;;;;;;4.43;4.03;;;19.00;99.90;;;;;;5036374;28;20064;-68
2022/11/17 10:21:56;;;;;;;3.45;3.25;;;19.40;99.90;;;;;;5035558;28;20422;-64
2022/11/17 10:24:42;;;;;;;3.65;3.30;;;19.60;98.00;;;;;;5032349;28;20124;-66
2022/11/17 10:27:16;;;;;;;12.30;8.93;;;19.80;98.10;;;;;;5033587;28;20018;-73
2022/11/17 10:30:06;;;;;;;7.47;5.88;;;19.90;84.80;;;;;;5047707;28;20029;-68
2022/11/17 10:32:36;;;;;;;5.95;5.32;;;20.00;92.30;;;;;;5035173;28;20064;-70
2022/11/17 10:35:18;;;;;;;4.90;4.43;;;20.10;76.10;;;;;;5036704;28;20021;-70
2022/11/17 10:38:11;;;;;;;5.20;4.70;;;20.20;81.60;;;;;;5031817;28;20028;-65
2022/11/17 10:40:52;;;;;;;4.50;4.17;;;20.30;83.90;;;;;;5035085;28;20682;-67
2022/11/17 10:43:29;;;;;;;3.88;3.58;;;19.80;76.10;;;;;;5036702;28;20104;-66
2022/11/17 10:46:05;;;;;;;5.53;5.03;;;19.50;76.50;;;;;;5038169;28;20674;-64
2022/11/17 10:48:33;;;;;;;4.22;3.85;;;19.20;76.90;;;;;;5028991;28;20034;-64
2022/11/17 10:51:09;;;;;;;4.00;3.63;;;19.20;87.20;;;;;;5027801;28;20080;-62
2022/11/17 10:53:40;;;;;;;3.40;3.10;;;19.60;82.50;;;;;;5024722;28;20029;-68
2022/11/17 10:56:12;;;;;;;3.58;2.90;;;19.90;78.30;;;;;;5036192;28;20029;-64
2022/11/17 10:58:58;;;;;;;4.32;3.85;;;20.20;76.20;;;;;;5038230;28;20057;-69
2022/11/17 11:01:38;;;;;;;3.33;3.03;;;20.50;71.60;;;;;;5029415;28;20037;-65
2022/11/17 11:04:06;;;;;;;2.72;2.53;;;20.50;71.90;;;;;;5032440;28;20056;-63
2022/11/17 11:06:33;;;;;;;4.57;4.18;;;20.70;68.60;;;;;;5032357;28;20032;-65
2022/11/17 11:09:13;;;;;;;4.03;3.42;;;20.60;66.90;;;;;;5030467;28;20033;-68
2022/11/17 11:11:43;;;;;;;5.32;4.80;;;20.80;66.60;;;;;;5031207;28;20037;-64
2022/11/17 11:14:32;;;;;;;11.60;9.77;;;20.80;66.30;;;;;;5029926;28;20389;-66
2022/11/17 11:16:58;;;;;;;6.82;6.13;;;20.60;64.50;;;;;;5030154;28;20033;-64
2022/11/17 11:19:24;;;;;;;5.20;4.70;;;20.60;67.20;;;;;;5050652;28;20029;-61
2022/11/17 11:22:11;;;;;;;9.40;8.30;;;20.90;65.90;;;;;;5050184;28;20100;-61
2022/11/17 11:25:28;;;;;;;10.18;8.88;;;21.00;62.20;;;;;;5048023;28;20027;-63
2022/11/17 11:27:54;;;;;;;7.30;6.38;;;21.00;63.30;;;;;;5047743;28;20374;-67
2022/11/17 11:30:20;;;;;;;5.25;4.72;;;21.10;67.10;;;;;;5043837;28;20064;-64
2022/11/17 11:32:45;;;;;;;3.58;3.28;;;21.30;65.10;;;;;;5033297;28;20026;-68
2022/11/17 11:35:49;;;;;;;3.30;3.00;;;21.30;62.80;;;;;;5035271;28;20025;-66
2022/11/17 11:38:23;;;;;;;2.65;2.45;;;21.40;62.00;;;;;;5055395;28;20387;-65
2022/11/17 11:41:23;;;;;;;2.20;2.00;;;21.40;62.80;;;;;;5054826;28;20025;-65
2022/11/17 11:44:05;;;;;;;1.70;1.55;;;21.20;59.70;;;;;;5054649;28;20479;-63
2022/11/17 11:46:39;;;;;;;1.90;1.63;;;21.20;58.70;;;;;;5051832;28;20025;-65
2022/11/17 11:49:30;;;;;;;2.65;1.52;;;21.30;60.70;;;;;;5051799;28;20029;-63
2022/11/17 11:51:56;;;;;;;2.05;1.48;;;21.30;60.80;;;;;;5032082;28;20119;-63
2022/11/17 11:54:51;;;;;;;1.98;1.80;;;21.40;62.00;;;;;;5034979;28;20476;-64
2022/11/17 11:57:23;;;;;;;1.52;1.40;;;21.50;61.30;;;;;;5038995;28;20042;-67
2022/11/17 11:59:58;;;;;;;2.00;1.80;;;21.30;61.90;;;;;;5039330;28;20364;-67
2022/11/17 12:02:37;;;;;;;1.75;1.40;;;21.40;63.50;;;;;;5044768;28;20017;-64
2022/11/17 12:05:24;;;;;;;2.97;2.67;;;21.70;61.80;;;;;;5045331;28;20476;-62
2022/11/17 12:08:11;;;;;;;2.78;1.80;;;21.80;62.00;;;;;;5051168;28;20033;-63
2022/11/17 12:10:45;;;;;;;1.70;1.55;;;21.60;57.10;;;;;;5033653;28;20492;-69
2022/11/17 12:13:20;;;;;;;1.20;1.00;;;21.20;58.60;;;;;;5033984;28;20384;-63
2022/11/17 12:15:46;;;;;;;1.48;1.38;;;21.10;61.00;;;;;;5033747;28;20496;-68
2022/11/17 12:18:27;;;;;;;1.75;1.20;;;21.10;60.20;;;;;;5043200;28;20036;-65
2022/11/17 12:21:10;;;;;;;1.45;1.20;;;21.10;59.60;;;;;;5044216;28;20032;-67
2022/11/17 12:23:41;;;;;;;2.43;2.23;;;21.10;59.90;;;;;;5038279;28;20533;-63
2022/11/17 12:26:18;;;;;;;1.85;1.60;;;21.20;60.60;;;;;;5033180;28;20025;-63
2022/11/17 12:28:44;;;;;;;4.90;2.47;;;21.30;60.60;;;;;;5045115;28;20171;-64
2022/11/17 12:31:42;;;;;;;5.25;4.15;;;21.20;58.20;;;;;;5050167;28;20051;-67
2022/11/17 12:34:22;;;;;;;11.20;7.97;;;21.00;59.20;;;;;;5052034;28;20014;-69
2022/11/17 12:37:13;;;;;;;5.00;4.18;;;20.90;59.20;;;;;;5052803;28;20123;-63
2022/11/17 12:40:02;;;;;;;3.95;3.55;;;20.70;62.00;;;;;;5053403;28;20032;-65
2022/11/17 12:42:32;;;;;;;3.25;2.95;;;20.70;61.00;;;;;;5052509;28;20013;-63
2022/11/17 12:45:46;;;;;;;3.22;2.88;;;20.70;60.50;;;;;;5053976;28;20458;-65
2022/11/17 12:48:15;;;;;;;2.72;2.45;;;20.60;58.70;;;;;;5053105;28;20029;-65
2022/11/17 12:50:50;;;;;;;2.58;2.38;;;20.50;62.20;;;;;;5053458;28;20026;-66
2022/11/17 12:53:47;;;;;;;2.50;2.30;;;20.40;60.80;;;;;;5052957;28;20031;-66
2022/11/17 12:56:16;;;;;;;1.80;1.70;;;20.40;60.90;;;;;;5052174;28;20041;-64
2022/11/17 12:58:50;;;;;;;1.70;1.60;;;20.30;61.20;;;;;;5054681;28;20025;-65
2022/11/17 13:01:50;;;;;;;1.80;1.67;;;20.50;62.60;;;;;;5054511;28;20044;-65
2022/11/17 13:04:39;;;;;;;1.60;1.50;;;20.60;62.90;;;;;;5048522;28;20573;-64
2022/11/17 13:07:15;;;;;;;1.23;1.13;;;20.60;64.20;;;;;;5033408;28;20053;-64
2022/11/17 13:09:41;;;;;;;2.17;1.40;;;20.60;62.70;;;;;;5032792;28;20049;-66
2022/11/17 13:12:09;;;;;;;2.08;1.20;;;20.50;62.90;;;;;;5033228;28;20361;-66
2022/11/17 13:14:50;;;;;;;2.05;1.23;;;20.50;63.50;;;;;;5031771;28;20475;-65
2022/11/17 13:17:19;;;;;;;1.30;1.20;;;20.50;63.50;;;;;;5043464;28;20119;-64
2022/11/17 13:19:45;;;;;;;1.88;1.77;;;20.50;63.30;;;;;;5036540;28;20025;-70
2022/11/17 13:22:17;;;;;;;1.60;1.50;;;20.50;62.50;;;;;;5049621;28;20028;-66
2022/11/17 13:24:47;;;;;;;2.38;1.80;;;20.50;61.90;;;;;;5050180;28;20025;-64
2022/11/17 13:27:30;;;;;;;2.42;2.17;;;20.50;62.00;;;;;;5044801;28;20506;-66
2022/11/17 13:30:19;;;;;;;4.22;3.78;;;20.40;61.40;;;;;;5051100;28;20029;-70
2022/11/17 13:32:45;;;;;;;6.50;5.22;;;20.40;62.60;;;;;;5048983;28;20394;-65
2022/11/17 13:35:23;;;;;;;7.10;5.97;;;20.40;61.30;;;;;;5033379;28;20037;-64
2022/11/17 13:38:10;;;;;;;5.30;4.80;;;20.20;61.60;;;;;;5032726;28;20076;-64